sensor_id;sensor_type;location;lat;lon;timestamp;P1;durP1;ratioP1;P2;durP2;ratioP2
41255;SDS011;26989;45.524;10.938;2023-02-01T00:00:56;31.33;;;15.25;;
41255;SDS011;26989;45.524;10.938;2023-02-01T00:03:23;30.58;;;15.18;;
41255;SDS011;26989;45.524;10.938;2023-02-01T00:05:57;29.38;;;14.43;;
41255;SDS011;26989;45.524;10.938;2023-02-01T00:08:25;30.00;;;15.07;;
41255;SDS011;26989;45.524;10.938;2023-02-01T00:10:57;33.92;;;15.63;;
41255;SDS011;26989;45.524;10.938;2023-02-01T00:13:36;28.60;;;15.10;;
41255;SDS011;26989;45.524;10.938;2023-02-01T00:16:05;29.80;;;15.05;;
41255;SDS011;26989;45.524;10.938;2023-02-01T00:18:34;31.95;;;16.65;;
41255;SDS011;26989;45.524;10.938;2023-02-01T00:21:02;34.67;;;16.65;;
41255;SDS011;26989;45.524;10.938;2023-02-01T00:23:31;34.03;;;17.80;;
41255;SDS011;26989;45.524;10.938;2023-02-01T00:26:01;32.00;;;15.93;;
41255;SDS011;26989;45.524;10.938;2023-02-01T00:28:29;29.33;;;15.85;;
41255;SDS011;26989;45.524;10.938;2023-02-01T00:30:59;33.17;;;16.00;;
41255;SDS011;26989;45.524;10.938;2023-02-01T00:33:29;28.98;;;14.50;;
41255;SDS011;26989;45.524;10.938;2023-02-01T00:35:57;29.00;;;15.02;;
41255;SDS011;26989;45.524;10.938;2023-02-01T00:38:29;33.28;;;14.95;;
41255;SDS011;26989;45.524;10.938;2023-02-01T00:41:03;28.23;;;12.75;;
41255;SDS011;26989;45.524;10.938;2023-02-01T00:43:34;28.65;;;15.38;;
41255;SDS011;26989;45.524;10.938;2023-02-01T00:46:01;29.88;;;14.00;;
41255;SDS011;26989;45.524;10.938;2023-02-01T00:48:28;29.05;;;15.05;;
41255;SDS011;26989;45.524;10.938;2023-02-01T00:50:59;28.77;;;14.65;;
41255;SDS011;26989;45.524;10.938;2023-02-01T00:53:27;23.97;;;11.80;;
41255;SDS011;26989;45.524;10.938;2023-02-01T00:55:55;28.10;;;13.20;;
41255;SDS011;26989;45.524;10.938;2023-02-01T00:58:23;30.40;;;15.43;;
41255;SDS011;26989;45.524;10.938;2023-02-01T01:03:39;35.00;;;16.08;;
41255;SDS011;26989;45.524;10.938;2023-02-01T01:06:15;33.90;;;16.23;;
41255;SDS011;26989;45.524;10.938;2023-02-01T01:08:42;31.23;;;16.13;;
41255;SDS011;26989;45.524;10.938;2023-02-01T01:11:14;35.30;;;16.88;;
41255;SDS011;26989;45.524;10.938;2023-02-01T01:13:46;35.03;;;16.90;;
41255;SDS011;26989;45.524;10.938;2023-02-01T01:16:14;37.42;;;16.77;;
41255;SDS011;26989;45.524;10.938;2023-02-01T01:18:41;29.48;;;14.10;;
41255;SDS011;26989;45.524;10.938;2023-02-01T01:21:09;31.67;;;14.05;;
41255;SDS011;26989;45.524;10.938;2023-02-01T01:23:39;32.65;;;16.10;;
41255;SDS011;26989;45.524;10.938;2023-02-01T01:26:10;29.75;;;14.05;;
41255;SDS011;26989;45.524;10.938;2023-02-01T01:28:42;29.02;;;14.32;;
41255;SDS011;26989;45.524;10.938;2023-02-01T01:31:10;34.95;;;15.38;;
41255;SDS011;26989;45.524;10.938;2023-02-01T01:33:37;28.67;;;13.48;;
41255;SDS011;26989;45.524;10.938;2023-02-01T01:36:05;31.65;;;14.52;;
41255;SDS011;26989;45.524;10.938;2023-02-01T01:38:32;28.27;;;13.75;;
41255;SDS011;26989;45.524;10.938;2023-02-01T01:41:01;30.40;;;15.65;;
41255;SDS011;26989;45.524;10.938;2023-02-01T01:43:44;28.40;;;14.77;;
41255;SDS011;26989;45.524;10.938;2023-02-01T01:46:15;28.13;;;13.80;;
41255;SDS011;26989;45.524;10.938;2023-02-01T01:48:47;30.50;;;15.57;;
41255;SDS011;26989;45.524;10.938;2023-02-01T01:51:17;31.17;;;16.65;;
41255;SDS011;26989;45.524;10.938;2023-02-01T01:53:58;30.48;;;14.93;;
41255;SDS011;26989;45.524;10.938;2023-02-01T01:56:29;34.58;;;16.20;;
41255;SDS011;26989;45.524;10.938;2023-02-01T01:58:58;34.80;;;16.30;;
41255;SDS011;26989;45.524;10.938;2023-02-01T02:01:25;34.30;;;16.10;;
41255;SDS011;26989;45.524;10.938;2023-02-01T02:03:53;33.05;;;15.48;;
41255;SDS011;26989;45.524;10.938;2023-02-01T02:06:27;36.28;;;17.30;;
41255;SDS011;26989;45.524;10.938;2023-02-01T02:09:05;34.47;;;15.55;;
41255;SDS011;26989;45.524;10.938;2023-02-01T02:11:32;31.70;;;15.98;;
41255;SDS011;26989;45.524;10.938;2023-02-01T02:13:59;32.50;;;15.82;;
41255;SDS011;26989;45.524;10.938;2023-02-01T02:45:28;31.52;;;15.48;;
41255;SDS011;26989;45.524;10.938;2023-02-01T02:48:21;36.17;;;18.38;;
41255;SDS011;26989;45.524;10.938;2023-02-01T02:51:18;37.22;;;18.17;;
41255;SDS011;26989;45.524;10.938;2023-02-01T02:54:10;34.47;;;16.35;;
41255;SDS011;26989;45.524;10.938;2023-02-01T02:56:59;41.00;;;19.52;;
41255;SDS011;26989;45.524;10.938;2023-02-01T02:59:49;34.85;;;17.73;;
41255;SDS011;26989;45.524;10.938;2023-02-01T03:02:35;31.73;;;16.50;;
41255;SDS011;26989;45.524;10.938;2023-02-01T03:05:21;39.95;;;17.67;;
41255;SDS011;26989;45.524;10.938;2023-02-01T03:08:05;32.88;;;15.35;;
41255;SDS011;26989;45.524;10.938;2023-02-01T03:15:51;32.22;;;15.23;;
41255;SDS011;26989;45.524;10.938;2023-02-01T03:18:32;28.88;;;14.93;;
41255;SDS011;26989;45.524;10.938;2023-02-01T03:21:01;28.67;;;14.57;;
41255;SDS011;26989;45.524;10.938;2023-02-01T03:23:32;33.05;;;16.00;;
41255;SDS011;26989;45.524;10.938;2023-02-01T03:26:01;36.47;;;17.45;;
41255;SDS011;26989;45.524;10.938;2023-02-01T03:28:30;32.00;;;15.65;;
41255;SDS011;26989;45.524;10.938;2023-02-01T03:30:59;32.60;;;14.15;;
41255;SDS011;26989;45.524;10.938;2023-02-01T03:33:27;35.70;;;16.83;;
41255;SDS011;26989;45.524;10.938;2023-02-01T03:38:52;36.47;;;16.38;;
41255;SDS011;26989;45.524;10.938;2023-02-01T03:43:59;41.15;;;19.92;;
41255;SDS011;26989;45.524;10.938;2023-02-01T03:46:39;39.90;;;19.33;;
41255;SDS011;26989;45.524;10.938;2023-02-01T03:49:16;33.45;;;17.08;;
41255;SDS011;26989;45.524;10.938;2023-02-01T03:51:49;31.45;;;15.60;;
41255;SDS011;26989;45.524;10.938;2023-02-01T03:54:17;38.15;;;18.27;;
41255;SDS011;26989;45.524;10.938;2023-02-01T03:56:45;36.03;;;18.67;;
41255;SDS011;26989;45.524;10.938;2023-02-01T03:59:14;35.28;;;17.90;;
41255;SDS011;26989;45.524;10.938;2023-02-01T04:01:41;35.97;;;18.80;;
41255;SDS011;26989;45.524;10.938;2023-02-01T04:04:08;41.03;;;19.52;;
41255;SDS011;26989;45.524;10.938;2023-02-01T04:06:35;32.00;;;17.83;;
41255;SDS011;26989;45.524;10.938;2023-02-01T04:09:02;35.83;;;17.77;;
41255;SDS011;26989;45.524;10.938;2023-02-01T04:11:29;33.97;;;18.15;;
41255;SDS011;26989;45.524;10.938;2023-02-01T04:13:56;38.25;;;17.45;;
41255;SDS011;26989;45.524;10.938;2023-02-01T04:16:23;39.55;;;18.02;;
41255;SDS011;26989;45.524;10.938;2023-02-01T04:18:50;39.55;;;18.85;;
41255;SDS011;26989;45.524;10.938;2023-02-01T04:21:15;33.08;;;18.75;;
41255;SDS011;26989;45.524;10.938;2023-02-01T04:23:42;42.20;;;19.40;;
41255;SDS011;26989;45.524;10.938;2023-02-01T04:26:09;37.95;;;20.52;;
41255;SDS011;26989;45.524;10.938;2023-02-01T04:28:36;37.42;;;19.20;;
41255;SDS011;26989;45.524;10.938;2023-02-01T04:31:03;33.10;;;17.33;;
41255;SDS011;26989;45.524;10.938;2023-02-01T04:33:30;35.72;;;18.45;;
41255;SDS011;26989;45.524;10.938;2023-02-01T04:35:58;37.45;;;18.92;;
41255;SDS011;26989;45.524;10.938;2023-02-01T04:38:25;35.78;;;19.35;;
41255;SDS011;26989;45.524;10.938;2023-02-01T04:40:53;40.65;;;20.67;;
41255;SDS011;26989;45.524;10.938;2023-02-01T04:43:19;45.80;;;21.05;;
41255;SDS011;26989;45.524;10.938;2023-02-01T04:45:47;44.47;;;21.17;;
41255;SDS011;26989;45.524;10.938;2023-02-01T04:48:15;42.08;;;21.60;;
41255;SDS011;26989;45.524;10.938;2023-02-01T04:50:48;42.57;;;22.40;;
41255;SDS011;26989;45.524;10.938;2023-02-01T04:53:15;52.42;;;23.38;;
41255;SDS011;26989;45.524;10.938;2023-02-01T04:55:43;43.95;;;22.98;;
41255;SDS011;26989;45.524;10.938;2023-02-01T04:58:10;46.45;;;23.30;;
41255;SDS011;26989;45.524;10.938;2023-02-01T05:00:37;51.20;;;24.02;;
41255;SDS011;26989;45.524;10.938;2023-02-01T05:03:04;54.08;;;24.70;;
41255;SDS011;26989;45.524;10.938;2023-02-01T05:05:31;50.28;;;25.70;;
41255;SDS011;26989;45.524;10.938;2023-02-01T05:07:58;56.03;;;28.92;;
41255;SDS011;26989;45.524;10.938;2023-02-01T05:10:25;57.13;;;25.95;;
41255;SDS011;26989;45.524;10.938;2023-02-01T05:12:52;50.10;;;24.20;;
41255;SDS011;26989;45.524;10.938;2023-02-01T05:15:37;57.05;;;29.92;;
41255;SDS011;26989;45.524;10.938;2023-02-01T05:18:04;60.97;;;28.85;;
41255;SDS011;26989;45.524;10.938;2023-02-01T05:20:31;55.80;;;29.02;;
41255;SDS011;26989;45.524;10.938;2023-02-01T05:22:58;58.00;;;31.15;;
41255;SDS011;26989;45.524;10.938;2023-02-01T05:25:25;57.65;;;27.23;;
41255;SDS011;26989;45.524;10.938;2023-02-01T05:27:52;57.80;;;28.00;;
41255;SDS011;26989;45.524;10.938;2023-02-01T05:30:20;68.07;;;31.63;;
41255;SDS011;26989;45.524;10.938;2023-02-01T05:32:51;71.70;;;36.35;;
41255;SDS011;26989;45.524;10.938;2023-02-01T05:35:19;68.70;;;35.65;;
41255;SDS011;26989;45.524;10.938;2023-02-01T05:37:46;74.97;;;36.42;;
41255;SDS011;26989;45.524;10.938;2023-02-01T05:40:13;77.57;;;38.25;;
41255;SDS011;26989;45.524;10.938;2023-02-01T05:42:40;80.40;;;41.05;;
41255;SDS011;26989;45.524;10.938;2023-02-01T05:45:07;78.97;;;37.75;;
41255;SDS011;26989;45.524;10.938;2023-02-01T05:47:34;77.43;;;37.67;;
41255;SDS011;26989;45.524;10.938;2023-02-01T05:50:01;81.13;;;40.00;;
41255;SDS011;26989;45.524;10.938;2023-02-01T05:52:29;82.18;;;39.75;;
41255;SDS011;26989;45.524;10.938;2023-02-01T05:54:56;78.78;;;40.10;;
41255;SDS011;26989;45.524;10.938;2023-02-01T05:57:23;80.93;;;40.25;;
41255;SDS011;26989;45.524;10.938;2023-02-01T05:59:50;84.72;;;39.30;;
41255;SDS011;26989;45.524;10.938;2023-02-01T06:02:17;86.88;;;44.40;;
41255;SDS011;26989;45.524;10.938;2023-02-01T06:04:44;102.13;;;46.67;;
41255;SDS011;26989;45.524;10.938;2023-02-01T06:07:11;103.15;;;50.17;;
41255;SDS011;26989;45.524;10.938;2023-02-01T06:09:37;102.03;;;50.33;;
41255;SDS011;26989;45.524;10.938;2023-02-01T06:12:04;96.25;;;46.78;;
41255;SDS011;26989;45.524;10.938;2023-02-01T06:14:32;99.57;;;48.60;;
41255;SDS011;26989;45.524;10.938;2023-02-01T06:16:59;98.20;;;49.72;;
41255;SDS011;26989;45.524;10.938;2023-02-01T06:19:27;96.68;;;48.85;;
41255;SDS011;26989;45.524;10.938;2023-02-01T06:21:54;95.45;;;46.47;;
41255;SDS011;26989;45.524;10.938;2023-02-01T06:24:21;91.88;;;47.10;;
41255;SDS011;26989;45.524;10.938;2023-02-01T06:26:48;97.65;;;45.03;;
41255;SDS011;26989;45.524;10.938;2023-02-01T06:29:15;97.55;;;47.53;;
41255;SDS011;26989;45.524;10.938;2023-02-01T06:31:42;94.70;;;48.75;;
41255;SDS011;26989;45.524;10.938;2023-02-01T06:34:09;95.95;;;47.65;;
41255;SDS011;26989;45.524;10.938;2023-02-01T06:36:35;100.57;;;50.75;;
41255;SDS011;26989;45.524;10.938;2023-02-01T06:39:03;96.30;;;47.13;;
41255;SDS011;26989;45.524;10.938;2023-02-01T06:41:30;99.90;;;50.65;;
41255;SDS011;26989;45.524;10.938;2023-02-01T06:43:57;94.85;;;47.45;;
41255;SDS011;26989;45.524;10.938;2023-02-01T06:46:24;97.10;;;48.50;;
41255;SDS011;26989;45.524;10.938;2023-02-01T06:48:51;102.45;;;49.03;;
41255;SDS011;26989;45.524;10.938;2023-02-01T06:51:22;98.43;;;50.42;;
41255;SDS011;26989;45.524;10.938;2023-02-01T06:53:51;98.57;;;48.22;;
41255;SDS011;26989;45.524;10.938;2023-02-01T06:56:18;104.97;;;52.45;;
41255;SDS011;26989;45.524;10.938;2023-02-01T06:58:46;108.95;;;53.10;;
41255;SDS011;26989;45.524;10.938;2023-02-01T07:01:14;109.13;;;50.58;;
41255;SDS011;26989;45.524;10.938;2023-02-01T07:03:42;115.30;;;54.47;;
41255;SDS011;26989;45.524;10.938;2023-02-01T07:06:09;112.35;;;55.72;;
41255;SDS011;26989;45.524;10.938;2023-02-01T07:08:39;119.22;;;59.50;;
41255;SDS011;26989;45.524;10.938;2023-02-01T07:11:07;103.43;;;51.28;;
41255;SDS011;26989;45.524;10.938;2023-02-01T07:13:36;103.65;;;53.97;;
41255;SDS011;26989;45.524;10.938;2023-02-01T07:16:08;112.60;;;55.67;;
41255;SDS011;26989;45.524;10.938;2023-02-01T07:18:37;108.60;;;52.40;;
41255;SDS011;26989;45.524;10.938;2023-02-01T07:21:04;111.60;;;57.38;;
41255;SDS011;26989;45.524;10.938;2023-02-01T07:23:32;114.53;;;56.25;;
41255;SDS011;26989;45.524;10.938;2023-02-01T07:26:01;111.38;;;53.38;;
41255;SDS011;26989;45.524;10.938;2023-02-01T07:28:30;117.55;;;58.40;;
41255;SDS011;26989;45.524;10.938;2023-02-01T07:31:03;102.93;;;50.75;;
41255;SDS011;26989;45.524;10.938;2023-02-01T07:33:34;105.05;;;53.70;;
41255;SDS011;26989;45.524;10.938;2023-02-01T07:36:04;109.32;;;51.17;;
41255;SDS011;26989;45.524;10.938;2023-02-01T07:38:32;111.30;;;52.95;;
41255;SDS011;26989;45.524;10.938;2023-02-01T07:41:00;115.97;;;55.55;;
41255;SDS011;26989;45.524;10.938;2023-02-01T07:43:29;120.75;;;56.83;;
41255;SDS011;26989;45.524;10.938;2023-02-01T07:45:56;103.15;;;51.40;;
41255;SDS011;26989;45.524;10.938;2023-02-01T07:48:24;122.93;;;59.05;;
41255;SDS011;26989;45.524;10.938;2023-02-01T07:50:58;107.95;;;53.70;;
41255;SDS011;26989;45.524;10.938;2023-02-01T07:53:26;118.53;;;57.95;;
41255;SDS011;26989;45.524;10.938;2023-02-01T07:55:54;120.00;;;62.15;;
41255;SDS011;26989;45.524;10.938;2023-02-01T07:58:22;109.05;;;56.17;;
41255;SDS011;26989;45.524;10.938;2023-02-01T08:00:50;113.15;;;53.80;;
41255;SDS011;26989;45.524;10.938;2023-02-01T08:03:36;121.97;;;55.80;;
41255;SDS011;26989;45.524;10.938;2023-02-01T08:06:03;112.57;;;57.22;;
41255;SDS011;26989;45.524;10.938;2023-02-01T08:08:30;114.30;;;54.47;;
41255;SDS011;26989;45.524;10.938;2023-02-01T08:11:01;103.50;;;54.15;;
41255;SDS011;26989;45.524;10.938;2023-02-01T08:13:30;112.47;;;56.90;;
41255;SDS011;26989;45.524;10.938;2023-02-01T08:15:59;121.53;;;59.35;;
41255;SDS011;26989;45.524;10.938;2023-02-01T08:18:26;126.35;;;60.17;;
41255;SDS011;26989;45.524;10.938;2023-02-01T08:20:53;117.55;;;59.63;;
41255;SDS011;26989;45.524;10.938;2023-02-01T08:23:21;119.32;;;57.50;;
41255;SDS011;26989;45.524;10.938;2023-02-01T08:25:48;121.88;;;59.58;;
41255;SDS011;26989;45.524;10.938;2023-02-01T08:28:16;106.43;;;57.85;;
41255;SDS011;26989;45.524;10.938;2023-02-01T08:30:43;114.75;;;56.22;;
41255;SDS011;26989;45.524;10.938;2023-02-01T08:33:10;105.93;;;58.58;;
41255;SDS011;26989;45.524;10.938;2023-02-01T08:35:38;113.85;;;58.38;;
41255;SDS011;26989;45.524;10.938;2023-02-01T08:38:09;110.55;;;56.70;;
41255;SDS011;26989;45.524;10.938;2023-02-01T08:40:36;111.68;;;56.92;;
41255;SDS011;26989;45.524;10.938;2023-02-01T08:43:03;107.32;;;55.70;;
41255;SDS011;26989;45.524;10.938;2023-02-01T08:45:30;109.80;;;56.80;;
41255;SDS011;26989;45.524;10.938;2023-02-01T08:47:57;115.32;;;57.47;;
41255;SDS011;26989;45.524;10.938;2023-02-01T08:50:24;113.55;;;56.22;;
41255;SDS011;26989;45.524;10.938;2023-02-01T08:52:52;117.63;;;58.45;;
41255;SDS011;26989;45.524;10.938;2023-02-01T08:55:20;110.45;;;56.88;;
41255;SDS011;26989;45.524;10.938;2023-02-01T08:57:47;112.97;;;59.17;;
41255;SDS011;26989;45.524;10.938;2023-02-01T09:00:16;126.60;;;63.72;;
41255;SDS011;26989;45.524;10.938;2023-02-01T09:02:44;148.50;;;77.32;;
41255;SDS011;26989;45.524;10.938;2023-02-01T09:05:11;123.70;;;62.97;;
41255;SDS011;26989;45.524;10.938;2023-02-01T09:07:40;121.07;;;61.75;;
41255;SDS011;26989;45.524;10.938;2023-02-01T09:10:07;127.85;;;62.92;;
41255;SDS011;26989;45.524;10.938;2023-02-01T09:12:34;124.80;;;62.35;;
41255;SDS011;26989;45.524;10.938;2023-02-01T09:15:02;116.13;;;59.55;;
41255;SDS011;26989;45.524;10.938;2023-02-01T09:17:29;129.07;;;61.83;;
41255;SDS011;26989;45.524;10.938;2023-02-01T09:19:56;312.83;;;185.00;;
41255;SDS011;26989;45.524;10.938;2023-02-01T09:22:23;164.88;;;89.57;;
41255;SDS011;26989;45.524;10.938;2023-02-01T09:24:51;137.30;;;66.30;;
41255;SDS011;26989;45.524;10.938;2023-02-01T09:27:20;130.70;;;65.15;;
41255;SDS011;26989;45.524;10.938;2023-02-01T09:29:48;125.47;;;62.03;;
41255;SDS011;26989;45.524;10.938;2023-02-01T09:32:19;127.60;;;61.97;;
41255;SDS011;26989;45.524;10.938;2023-02-01T09:34:48;129.57;;;59.80;;
41255;SDS011;26989;45.524;10.938;2023-02-01T09:37:16;127.45;;;61.13;;
41255;SDS011;26989;45.524;10.938;2023-02-01T09:39:43;122.47;;;62.40;;
41255;SDS011;26989;45.524;10.938;2023-02-01T09:45:06;125.70;;;62.30;;
41255;SDS011;26989;45.524;10.938;2023-02-01T09:47:56;128.13;;;63.17;;
41255;SDS011;26989;45.524;10.938;2023-02-01T09:50:38;124.25;;;63.78;;
41255;SDS011;26989;45.524;10.938;2023-02-01T09:53:12;133.60;;;65.07;;
41255;SDS011;26989;45.524;10.938;2023-02-01T09:55:51;134.95;;;63.63;;
41255;SDS011;26989;45.524;10.938;2023-02-01T10:01:36;122.68;;;61.40;;
41255;SDS011;26989;45.524;10.938;2023-02-01T10:04:08;127.68;;;61.50;;
41255;SDS011;26989;45.524;10.938;2023-02-01T10:24:08;118.45;;;59.22;;
41255;SDS011;26989;45.524;10.938;2023-02-01T10:26:22;116.25;;;58.13;;
41255;SDS011;26989;45.524;10.938;2023-02-01T10:28:51;119.75;;;57.85;;
41255;SDS011;26989;45.524;10.938;2023-02-01T10:31:22;118.22;;;59.17;;
41255;SDS011;26989;45.524;10.938;2023-02-01T10:33:57;120.32;;;58.42;;
41255;SDS011;26989;45.524;10.938;2023-02-01T10:36:49;116.88;;;55.80;;
41255;SDS011;26989;45.524;10.938;2023-02-01T10:39:21;107.25;;;55.92;;
41255;SDS011;26989;45.524;10.938;2023-02-01T10:41:49;120.50;;;58.53;;
41255;SDS011;26989;45.524;10.938;2023-02-01T10:44:18;122.32;;;56.40;;
41255;SDS011;26989;45.524;10.938;2023-02-01T10:46:49;110.82;;;54.42;;
41255;SDS011;26989;45.524;10.938;2023-02-01T10:49:38;112.50;;;55.35;;
41255;SDS011;26989;45.524;10.938;2023-02-01T10:52:16;106.85;;;52.95;;
41255;SDS011;26989;45.524;10.938;2023-02-01T10:58:16;108.43;;;53.25;;
41255;SDS011;26989;45.524;10.938;2023-02-01T11:00:48;102.55;;;52.55;;
41255;SDS011;26989;45.524;10.938;2023-02-01T11:04:05;114.50;;;53.97;;
41255;SDS011;26989;45.524;10.938;2023-02-01T11:06:31;252.45;;;130.80;;
41255;SDS011;26989;45.524;10.938;2023-02-01T11:11:52;149.65;;;80.05;;
41255;SDS011;26989;45.524;10.938;2023-02-01T11:16:54;102.45;;;50.85;;
41255;SDS011;26989;45.524;10.938;2023-02-01T11:19:24;97.32;;;49.50;;
41255;SDS011;26989;45.524;10.938;2023-02-01T11:21:51;105.00;;;52.90;;
41255;SDS011;26989;45.524;10.938;2023-02-01T11:24:22;113.13;;;52.72;;
41255;SDS011;26989;45.524;10.938;2023-02-01T11:26:50;98.40;;;51.90;;
41255;SDS011;26989;45.524;10.938;2023-02-01T11:29:20;101.97;;;49.10;;
41255;SDS011;26989;45.524;10.938;2023-02-01T11:31:59;97.47;;;50.33;;
41255;SDS011;26989;45.524;10.938;2023-02-01T11:34:36;98.03;;;50.53;;
41255;SDS011;26989;45.524;10.938;2023-02-01T11:37:05;101.38;;;49.25;;
41255;SDS011;26989;45.524;10.938;2023-02-01T11:39:56;98.17;;;50.40;;
41255;SDS011;26989;45.524;10.938;2023-02-01T11:42:25;99.60;;;50.80;;
41255;SDS011;26989;45.524;10.938;2023-02-01T11:47:54;97.47;;;49.75;;
41255;SDS011;26989;45.524;10.938;2023-02-01T11:50:34;108.00;;;54.55;;
41255;SDS011;26989;45.524;10.938;2023-02-01T11:55:56;105.97;;;52.10;;
41255;SDS011;26989;45.524;10.938;2023-02-01T12:02:14;102.80;;;53.97;;
41255;SDS011;26989;45.524;10.938;2023-02-01T12:06:53;114.35;;;52.47;;
41255;SDS011;26989;45.524;10.938;2023-02-01T12:15:04;109.00;;;53.83;;
41255;SDS011;26989;45.524;10.938;2023-02-01T12:20:52;99.40;;;55.35;;
41255;SDS011;26989;45.524;10.938;2023-02-01T12:23:50;105.38;;;55.60;;
41255;SDS011;26989;45.524;10.938;2023-02-01T12:29:05;100.45;;;53.15;;
41255;SDS011;26989;45.524;10.938;2023-02-01T12:34:58;100.88;;;53.40;;
41255;SDS011;26989;45.524;10.938;2023-02-01T12:43:04;105.55;;;53.45;;
41255;SDS011;26989;45.524;10.938;2023-02-01T12:45:44;105.60;;;55.58;;
41255;SDS011;26989;45.524;10.938;2023-02-01T12:48:38;104.43;;;55.95;;
41255;SDS011;26989;45.524;10.938;2023-02-01T12:51:14;106.50;;;57.58;;
41255;SDS011;26989;45.524;10.938;2023-02-01T12:53:46;104.22;;;55.28;;
41255;SDS011;26989;45.524;10.938;2023-02-01T12:58:50;104.22;;;53.85;;
41255;SDS011;26989;45.524;10.938;2023-02-01T13:04:25;96.35;;;51.17;;
41255;SDS011;26989;45.524;10.938;2023-02-01T13:09:39;104.00;;;53.28;;
41255;SDS011;26989;45.524;10.938;2023-02-01T13:12:22;102.72;;;54.25;;
41255;SDS011;26989;45.524;10.938;2023-02-01T13:14:56;97.10;;;52.40;;
41255;SDS011;26989;45.524;10.938;2023-02-01T13:17:31;102.65;;;52.88;;
41255;SDS011;26989;45.524;10.938;2023-02-01T13:20:03;105.72;;;54.95;;
41255;SDS011;26989;45.524;10.938;2023-02-01T13:22:35;105.75;;;54.50;;
41255;SDS011;26989;45.524;10.938;2023-02-01T13:25:11;104.38;;;53.97;;
41255;SDS011;26989;45.524;10.938;2023-02-01T13:27:45;103.93;;;53.83;;
41255;SDS011;26989;45.524;10.938;2023-02-01T13:30:20;102.35;;;54.85;;
41255;SDS011;26989;45.524;10.938;2023-02-01T13:39:34;105.15;;;53.42;;
41255;SDS011;26989;45.524;10.938;2023-02-01T13:42:22;103.78;;;54.28;;
41255;SDS011;26989;45.524;10.938;2023-02-01T13:47:29;106.05;;;55.03;;
41255;SDS011;26989;45.524;10.938;2023-02-01T13:50:12;107.55;;;54.40;;
41255;SDS011;26989;45.524;10.938;2023-02-01T13:52:43;105.03;;;54.92;;
41255;SDS011;26989;45.524;10.938;2023-02-01T13:57:49;107.10;;;54.88;;
41255;SDS011;26989;45.524;10.938;2023-02-01T14:00:48;106.15;;;56.03;;
41255;SDS011;26989;45.524;10.938;2023-02-01T14:08:23;108.45;;;57.20;;
41255;SDS011;26989;45.524;10.938;2023-02-01T14:11:03;111.93;;;57.42;;
41255;SDS011;26989;45.524;10.938;2023-02-01T14:13:46;109.25;;;58.00;;
41255;SDS011;26989;45.524;10.938;2023-02-01T14:16:16;105.97;;;57.83;;
41255;SDS011;26989;45.524;10.938;2023-02-01T14:21:35;111.88;;;58.88;;
41255;SDS011;26989;45.524;10.938;2023-02-01T14:26:56;113.70;;;55.50;;
41255;SDS011;26989;45.524;10.938;2023-02-01T14:29:32;98.07;;;55.05;;
41255;SDS011;26989;45.524;10.938;2023-02-01T14:32:23;101.05;;;55.60;;
41255;SDS011;26989;45.524;10.938;2023-02-01T14:34:54;102.18;;;56.47;;
41255;SDS011;26989;45.524;10.938;2023-02-01T14:37:30;110.40;;;59.23;;
41255;SDS011;26989;45.524;10.938;2023-02-01T14:40:00;106.15;;;56.85;;
41255;SDS011;26989;45.524;10.938;2023-02-01T14:42:44;111.68;;;58.22;;
41255;SDS011;26989;45.524;10.938;2023-02-01T14:55:43;102.07;;;56.67;;
41255;SDS011;26989;45.524;10.938;2023-02-01T14:58:32;97.68;;;53.85;;
41255;SDS011;26989;45.524;10.938;2023-02-01T15:04:10;102.07;;;55.10;;
41255;SDS011;26989;45.524;10.938;2023-02-01T15:06:41;109.03;;;60.55;;
41255;SDS011;26989;45.524;10.938;2023-02-01T15:14:47;106.38;;;58.88;;
41255;SDS011;26989;45.524;10.938;2023-02-01T15:17:31;106.55;;;58.97;;
41255;SDS011;26989;45.524;10.938;2023-02-01T15:20:14;104.95;;;59.72;;
41255;SDS011;26989;45.524;10.938;2023-02-01T15:25:29;104.38;;;57.80;;
41255;SDS011;26989;45.524;10.938;2023-02-01T15:27:57;102.70;;;57.60;;
41255;SDS011;26989;45.524;10.938;2023-02-01T15:30:29;112.40;;;59.40;;
41255;SDS011;26989;45.524;10.938;2023-02-01T15:33:05;119.78;;;60.45;;
41255;SDS011;26989;45.524;10.938;2023-02-01T15:35:46;107.38;;;57.42;;
41255;SDS011;26989;45.524;10.938;2023-02-01T15:38:34;108.50;;;58.22;;
41255;SDS011;26989;45.524;10.938;2023-02-01T15:41:18;106.13;;;59.42;;
41255;SDS011;26989;45.524;10.938;2023-02-01T15:44:03;125.57;;;59.58;;
41255;SDS011;26989;45.524;10.938;2023-02-01T15:46:40;117.15;;;60.65;;
41255;SDS011;26989;45.524;10.938;2023-02-01T15:49:16;119.18;;;62.13;;
41255;SDS011;26989;45.524;10.938;2023-02-01T15:51:56;115.45;;;61.72;;
41255;SDS011;26989;45.524;10.938;2023-02-01T15:54:41;116.05;;;63.10;;
41255;SDS011;26989;45.524;10.938;2023-02-01T15:57:12;111.90;;;61.60;;
41255;SDS011;26989;45.524;10.938;2023-02-01T15:59:57;118.45;;;62.65;;
41255;SDS011;26989;45.524;10.938;2023-02-01T16:02:34;120.90;;;64.95;;
41255;SDS011;26989;45.524;10.938;2023-02-01T16:05:05;117.25;;;64.65;;
41255;SDS011;26989;45.524;10.938;2023-02-01T16:07:55;125.95;;;64.07;;
41255;SDS011;26989;45.524;10.938;2023-02-01T16:10:30;123.15;;;62.78;;
41255;SDS011;26989;45.524;10.938;2023-02-01T16:13:04;114.65;;;61.58;;
41255;SDS011;26989;45.524;10.938;2023-02-01T16:15:30;125.72;;;64.18;;
41255;SDS011;26989;45.524;10.938;2023-02-01T16:17:58;136.10;;;65.00;;
41255;SDS011;26989;45.524;10.938;2023-02-01T16:20:27;127.00;;;62.22;;
41255;SDS011;26989;45.524;10.938;2023-02-01T16:22:56;126.07;;;59.53;;
41255;SDS011;26989;45.524;10.938;2023-02-01T16:25:23;114.10;;;62.28;;
41255;SDS011;26989;45.524;10.938;2023-02-01T16:27:50;126.78;;;61.30;;
41255;SDS011;26989;45.524;10.938;2023-02-01T16:30:17;126.35;;;60.97;;
41255;SDS011;26989;45.524;10.938;2023-02-01T16:32:59;127.68;;;64.82;;
41255;SDS011;26989;45.524;10.938;2023-02-01T16:35:32;125.90;;;66.55;;
41255;SDS011;26989;45.524;10.938;2023-02-01T16:38:04;132.43;;;67.93;;
41255;SDS011;26989;45.524;10.938;2023-02-01T16:40:39;125.28;;;67.68;;
41255;SDS011;26989;45.524;10.938;2023-02-01T16:43:17;135.20;;;70.43;;
41255;SDS011;26989;45.524;10.938;2023-02-01T16:45:48;171.15;;;77.85;;
41255;SDS011;26989;45.524;10.938;2023-02-01T16:48:23;138.85;;;68.55;;
41255;SDS011;26989;45.524;10.938;2023-02-01T16:50:54;136.60;;;68.93;;
41255;SDS011;26989;45.524;10.938;2023-02-01T16:53:30;124.95;;;63.15;;
41255;SDS011;26989;45.524;10.938;2023-02-01T16:56:12;124.22;;;64.93;;
41255;SDS011;26989;45.524;10.938;2023-02-01T16:58:40;129.00;;;63.88;;
41255;SDS011;26989;45.524;10.938;2023-02-01T17:01:10;121.38;;;61.45;;
41255;SDS011;26989;45.524;10.938;2023-02-01T17:03:41;122.78;;;62.78;;
41255;SDS011;26989;45.524;10.938;2023-02-01T17:06:10;105.07;;;55.38;;